Latest Weather Observations for Cloncurry

IDQ60801

Issued at 11:32 pm EST Saturday 1 October 2016 (issued every 30 minutes, with the page automatically refreshed every 10 minutes)

About weather observations | Map of weather stations | Latest weather observations for QLD | Other Formats
Station Details ID: 029141 Name: CLONCURRY AIRPORT Lat: -20.67 Lon: 140.50 Height: 186.0 m
Data from the previous 72 hours. | See also: Recent months at Cloncurry
Date/Time
EST
Temp
°C
App
Temp
°C
Dew
Point
°C
Rel
Hum
%
Delta-T
°C
Wind Press
QNH
hPa
Press
MSL
hPa
Rain since
9am
mm
Dir  Spd
km/h
Gust
km/h
Spd
kts
Gust
kts
01/11:30pm 23.3 18.8 -3.1 17 11.4 E 11 13 6 7 1012.0 1010.8 0.0
01/11:00pm 22.9 18.9 -2.6 18 11.1 E 9 11 5 6 1012.3 1011.1 0.0
01/10:30pm 23.0 18.6 -2.6 18 11.1 E 11 13 6 7 1012.1 1010.9 0.0
01/10:00pm 23.6 19.8 -3.7 16 11.7 E 7 11 4 6 1012.2 1011.0 0.0
01/09:30pm 24.4 19.4 -3.9 15 12.2 E 13 15 7 8 1011.9 1010.7 0.0
01/09:00pm 25.2 19.8 -4.2 14 12.7 E 15 17 8 9 1011.6 1010.4 0.0
01/08:30pm 24.4 19.8 -3.9 15 12.2 ENE 11 13 6 7 1011.4 1010.2 0.0
01/08:00pm 26.5 22.3 -4.1 13 13.3 ENE 9 9 5 5 1011.4 1010.2 0.0
01/07:30pm 26.7 21.7 -4.0 13 13.4 E 13 13 7 7 1010.7 1009.5 0.0
01/07:00pm 28.1 23.5 -3.9 12 14.2 E 11 13 6 7 1010.6 1009.4 0.0
01/06:30pm 30.2 26.0 -3.5 11 15.3 E 9 13 5 7 1010.4 1009.2 0.0
01/06:00pm 31.8 27.3 -3.5 10 16.2 E 11 15 6 8 1010.2 1009.0 0.0
01/05:30pm 32.4 27.4 -4.5 9 16.7 E 13 17 7 9 1010.1 1008.9 0.0
01/05:00pm 32.8 28.2 -4.2 9 17.0 E 11 19 6 10 1010.1 1008.9 0.0
01/04:30pm 32.4 27.9 -3.1 10 16.5 NE 11 17 6 9 1010.4 1009.2 0.0
01/04:00pm 32.9 27.3 -2.7 10 16.7 E 17 20 9 11 1010.6 1009.4 0.0
01/03:30pm 32.7 27.5 -2.9 10 16.6 ESE 15 33 8 18 1010.7 1009.5 0.0
01/03:00pm 32.4 28.1 -1.8 11 16.3 SSE 11 20 6 11 1011.0 1009.8 0.0
01/02:30pm 32.1 27.4 -2.0 11 16.1 ESE 13 26 7 14 1011.4 1010.2 0.0
01/02:00pm 31.1 25.9 -2.8 11 15.7 ESE 15 24 8 13 1011.9 1010.7 0.0
01/01:30pm 30.4 26.0 -2.2 12 15.2 NNE 11 17 6 9 1012.6 1011.5 0.0
01/01:00pm 29.3 24.4 -3.0 12 14.7 ENE 13 22 7 12 1013.3 1012.2 0.0
01/12:30pm 28.7 23.4 -3.5 12 14.4 ENE 15 24 8 13 1014.2 1013.0 0.0
01/12:00pm 28.7 23.9 -2.4 13 14.2 NNE 13 24 7 13 1014.7 1013.5 0.0
01/11:30am 27.2 22.4 -2.6 14 13.4 NE 13 20 7 11 1015.1 1013.9 0.0
01/11:00am 27.3 21.9 -1.6 15 13.3 E 17 24 9 13 1015.6 1014.4 0.0
01/10:30am 26.4 21.5 -0.6 17 12.5 ENE 15 24 8 13 1015.8 1014.6 0.0
01/10:00am 25.0 19.7 -0.9 18 11.8 E 17 22 9 12 1015.8 1014.6 0.0
01/09:30am 24.5 18.8 -0.6 19 11.5 E 19 28 10 15 1015.8 1014.9 0.0
01/09:00am 23.5 17.2 -0.7 20 10.9 ESE 22 30 12 16 1015.7 1014.8 0.0
01/08:30am 22.4 16.2 -0.3 22 10.3 SE 22 28 12 15 1015.4 1014.5 0.0
01/08:00am 20.8 15.7 0.6 26 9.2 SE 17 22 9 12 1015.0 1014.1 0.0
01/07:30am 15.9 12.3 0.9 36 6.6 S 9 11 5 6 1014.5 1013.6 0.0
01/07:00am 13.6 9.7 1.3 43 5.3 S 11 13 6 7 1014.3 1013.3 0.0
01/06:30am 10.5 6.8 0.0 48 4.3 S 9 11 5 6 1014.0 1013.0 0.0
01/06:00am 11.4 7.4 0.8 48 4.4 S 11 13 6 7 1013.7 1012.7 0.0
01/05:30am 11.1 7.5 0.8 49 4.3 SSE 9 15 5 8 1013.2 1012.3 0.0
01/05:00am 11.6 8.5 0.1 45 4.8 SSE 6 9 3 5 1012.8 1011.9 0.0
01/04:30am 12.4 8.0 0.5 44 5.0 SSE 13 13 7 7 1012.7 1011.8 0.0
01/04:00am 12.5 8.9 0.6 44 5.0 SSE 9 11 5 6 1012.7 1011.8 0.0
01/03:30am 12.0 8.4 0.5 45 4.8 SSE 9 13 5 7 1012.5 1011.6 0.0
01/03:00am 12.8 9.7 0.2 42 5.3 SSE 6 9 3 5 1012.6 1011.7 0.0
01/02:30am 12.8 9.6 -0.8 39 5.6 SSE 6 7 3 4 1012.6 1011.7 0.0
01/02:00am 13.6 11.4 -1.6 35 6.2 CALM 0 0 0 0 1012.5 1011.6 0.0
01/01:30am 14.7 12.1 -1.8 32 6.7 SSE 2 7 1 4 1012.4 1011.5 0.0
01/01:00am 16.4 12.0 -2.1 28 7.6 SSE 11 15 6 8 1012.6 1011.7 0.0
01/12:30am 16.7 12.1 -1.4 29 7.6 S 13 15 7 8 1012.8 1011.9 0.0
01/12:00am 16.9 11.9 -1.2 29 7.7 S 15 17 8 9 1012.8 1011.9 0.0
 
Date/Time
EST
Temp
°C
App
Temp
°C
Dew
Point
°C
Rel
Hum
%
Delta-T
°C
Wind Press
QNH
hPa
Press
MSL
hPa
Rain since
9am
mm
Dir  Spd
km/h
Gust
km/h
Spd
kts
Gust
kts
30/11:30pm 16.5 11.5 -1.1 30 7.4 SSE 15 15 8 8 1012.7 1011.8 0.0
30/11:00pm 17.5 14.0 -1.7 27 8.1 SSE 7 7 4 4 1012.7 1011.8 0.0
30/10:30pm 19.0 15.0 -2.0 24 8.9 SSE 9 9 5 5 1012.9 1012.0 0.0
30/10:00pm 21.2 16.9 -2.0 21 10.1 SSE 11 13 6 7 1012.8 1011.9 0.0
30/09:30pm 21.6 16.7 -3.0 19 10.5 SE 13 15 7 8 1012.3 1011.4 0.0
30/09:00pm 22.4 17.0 -4.6 16 11.2 SE 15 19 8 10 1012.0 1011.1 0.0
30/08:30pm 21.4 16.4 -3.9 18 10.6 S 13 15 7 8 1011.5 1010.6 0.0
30/08:00pm 22.6 17.7 -3.7 17 11.2 S 13 15 7 8 1011.2 1010.3 0.0
30/07:30pm 23.6 18.6 -4.5 15 11.8 S 13 13 7 7 1011.2 1010.3 0.0
30/07:00pm 24.2 18.8 -4.9 14 12.3 S 15 17 8 9 1011.0 1010.1 0.0
30/06:30pm 26.2 21.1 -5.4 12 13.4 S 13 15 7 8 1010.7 1009.8 0.0
30/06:00pm 28.1 22.6 -5.1 11 14.4 SSW 15 20 8 11 1010.5 1009.6 0.0
30/05:30pm 28.7 23.3 -4.6 11 14.6 S 15 20 8 11 1010.3 1009.4 0.0
30/05:00pm 28.9 23.4 -5.7 10 15.0 SSW 15 24 8 13 1010.1 1009.2 0.0
30/04:30pm 29.4 23.5 -5.4 10 15.2 SW 17 24 9 13 1010.2 1009.3 0.0
30/04:00pm 29.0 23.3 -7.0 9 15.2 SW 15 24 8 13 1010.3 1009.4 0.0
30/03:30pm 29.2 22.8 -6.9 9 15.3 S 19 26 10 14 1010.5 1009.6 0.0
30/03:00pm 29.2 23.7 -5.5 10 15.1 SSW 15 20 8 11 1011.0 1010.1 0.0
30/02:30pm 28.4 23.7 -4.9 11 14.5 WSW 11 20 6 11 1011.3 1010.4 0.0
30/02:00pm 28.1 23.1 -3.9 12 14.2 SE 13 19 7 10 1011.9 1011.0 0.0
30/01:30pm 26.7 21.6 -5.0 12 13.6 S 13 20 7 11 1012.4 1011.5 0.0
30/01:00pm 26.4 21.4 -4.2 13 13.3 SE 13 20 7 11 1012.9 1012.0 0.0
30/12:30pm 25.3 20.7 -4.1 14 12.7 W 11 22 6 12 1013.4 1012.5 0.0
30/12:00pm 25.2 20.7 -3.2 15 12.4 SE 11 24 6 13 1014.0 1013.0 0.0
30/11:30am 24.2 20.3 -1.6 18 11.6 SE 9 17 5 9 1014.6 1013.7 0.0
30/11:00am 22.8 18.0 -2.7 18 11.0 SE 13 24 7 13 1014.9 1014.0 0.0
30/10:30am 22.0 17.3 -2.0 20 10.5 SSE 13 20 7 11 1015.0 1014.1 0.0
30/10:00am 21.2 16.2 -1.3 22 9.9 SSE 15 26 8 14 1015.2 1014.3 0.0
30/09:30am 20.7 16.2 0.0 25 9.3 SE 13 24 7 13 1015.5 1014.6 0.0
30/09:00am 19.4 13.7 -1.1 25 8.9 ESE 19 26 10 14 1015.5 1014.6 0.2
30/08:30am 18.8 13.2 -0.1 28 8.3 ESE 19 26 10 14 1015.5 1014.6 0.2
30/08:00am 17.4 13.0 0.1 31 7.6 SE 13 20 7 11 1015.1 1014.2 0.2
30/07:30am 14.4 11.4 4.1 50 4.8 ESE 9 11 5 6 1014.7 1013.8 0.2
30/07:00am 11.8 9.3 4.8 62 3.2 ESE 7 11 4 6 1014.2 1013.2 0.2
30/06:30am 9.5 6.5 3.9 68 2.5 ENE 9 11 5 6 1013.8 1012.8 0.2
30/06:00am 9.1 6.5 4.1 71 2.2 ENE 7 9 4 5 1013.8 1012.8 0.2
30/05:30am 9.9 8.1 3.4 64 2.9 ENE 2 7 1 4 1013.1 1012.2 0.2
30/05:00am 12.0 9.5 4.0 58 3.6 ENE 6 9 3 5 1012.8 1011.9 0.2
30/04:30am 11.5 9.0 4.5 62 3.2 ENE 7 9 4 5 1012.8 1011.9 0.2
30/04:00am 11.0 8.4 4.0 62 3.1 ENE 7 9 4 5 1012.9 1012.0 0.2
30/03:30am 11.2 8.6 3.3 58 3.5 ENE 6 9 3 5 1012.8 1011.9 0.2
30/03:00am 12.8 10.7 3.7 54 4.1 ENE 4 9 2 5 1012.8 1011.9 0.2
30/02:30am 13.3 10.6 3.9 53 4.3 ENE 7 11 4 6 1012.7 1011.8 0.2
30/02:00am 13.7 10.7 4.0 52 4.5 SW 9 15 5 8 1012.5 1011.6 0.2
30/01:30am 15.4 11.6 3.9 46 5.4 SW 13 15 7 8 1012.4 1011.5 0.2
30/01:00am 16.8 13.0 3.8 42 6.1 SW 13 15 7 8 1012.3 1011.4 0.2
30/12:30am 16.6 13.4 3.3 41 6.2 SSW 9 15 5 8 1012.2 1011.3 0.2
30/12:00am 18.0 13.3 3.1 37 7.0 SSW 17 22 9 12 1012.1 1011.2 0.2
 
Date/Time
EST
Temp
°C
App
Temp
°C
Dew
Point
°C
Rel
Hum
%
Delta-T
°C
Wind Press
QNH
hPa
Press
MSL
hPa
Rain since
9am
mm
Dir  Spd
km/h
Gust
km/h
Spd
kts
Gust
kts
29/11:30pm 18.4 13.8 3.5 37 7.0 SSW 17 20 9 11 1012.0 1011.1 0.2
29/11:00pm 19.0 14.5 4.0 37 7.2 SSW 17 20 9 11 1011.9 1011.0 0.2
29/10:30pm 18.6 15.7 4.8 40 6.7 SSW 9 13 5 7 1011.9 1011.0 0.2
29/10:00pm 19.5 16.6 4.4 37 7.3 SSW 9 11 5 6 1011.6 1010.7 0.2
29/09:30pm 20.0 17.0 4.1 35 7.7 SSW 9 11 5 6 1011.3 1010.4 0.2
29/09:00pm 21.5 17.7 4.1 32 8.5 SSW 13 17 7 9 1010.8 1009.9 0.2
29/08:30pm 22.2 18.5 4.3 31 8.8 SSW 13 17 7 9 1010.3 1009.4 0.2
29/08:00pm 22.9 19.3 4.9 31 9.0 SSW 13 17 7 9 1009.9 1009.0 0.2
29/07:30pm 23.5 19.9 4.9 30 9.4 S 13 19 7 10 1009.3 1008.3 0.2
29/07:00pm 24.4 20.7 4.7 28 10.0 SSW 13 17 7 9 1009.0 1008.0 0.2
29/06:30pm 25.4 20.4 4.5 26 10.6 SSW 20 30 11 16 1008.8 1007.8 0.2
29/06:00pm 26.1 21.1 4.6 25 11.0 SSW 20 28 11 15 1008.6 1007.6 0.2
29/05:30pm 26.5 20.4 4.9 25 11.1 SSW 26 33 14 18 1008.3 1007.3 0.2
29/05:00pm 27.2 21.7 6.0 26 11.2 SSW 24 32 13 17 1008.4 1007.4 0.2
29/04:30pm 26.3 20.6 6.9 29 10.3 SSW 26 33 14 18 1008.5 1007.5 0.2
29/04:00pm 25.9 20.1 8.0 32 9.7 SSW 28 35 15 19 1008.6 1007.6 0.2
29/03:30pm 25.5 20.6 10.1 38 8.6 SSW 26 37 14 20 1008.8 1007.8 0.2
29/03:00pm 26.2 21.4 11.5 40 8.4 SW 28 35 15 19 1008.8 1007.8 0.2
29/02:30pm 25.7 21.2 12.5 44 7.7 SW 28 39 15 21 1008.9 1007.9 0.2
29/02:00pm 26.6 23.1 14.4 47 7.4 SSW 26 32 14 17 1009.1 1008.1 0.2
29/01:30pm 26.6 22.8 14.7 48 7.2 SSW 28 37 15 20 1009.2 1008.2 0.2
29/01:00pm 27.4 23.9 15.4 48 7.4 SSW 28 35 15 19 1009.4 1008.4 0.2
29/12:30pm 28.0 24.5 15.6 46 7.7 SSW 28 39 15 21 1009.8 1008.9 0.2
29/12:00pm 28.3 23.8 14.9 44 8.2 SW 32 43 17 23 1010.1 1009.2 0.2
29/11:43am 29.1 24.4 14.9 42 8.7 SW 33 50 18 27 1010.2 1009.3 0.2
29/11:30am 28.7 23.7 13.4 39 9.2 SW 32 41 17 22 1010.3 1009.4 0.2
29/11:22am 29.2 26.6 13.8 39 9.3 WSW 20 37 11 20 1010.3 1009.4 0.2
29/11:00am 29.2 27.5 12.6 36 9.8 S 13 17 7 9 1010.6 1009.7 0.2
29/10:30am 27.9 27.3 12.3 38 9.1 SW 7 15 4 8 1010.6 1009.7 0.2
29/10:00am 26.2 26.2 14.3 48 7.2 SSW 7 13 4 7 1010.8 1009.9 0.2
29/09:30am 25.5 25.7 14.3 50 6.7 SSW 6 9 3 5 1010.9 1010.0 0.0
29/09:00am 24.1 24.7 14.2 54 5.9 SSW 4 9 2 5 1010.7 1009.8 0.4
29/08:30am 23.0 23.6 15.3 62 4.6 SSW 6 9 3 5 1010.5 1009.6 0.4
29/08:00am 21.9 21.7 16.8 73 3.1 SSW 13 15 7 8 1010.7 1009.8 0.4
29/07:30am 21.4 22.2 17.2 77 2.6 SSW 9 15 5 8 1010.6 1009.7 0.4
29/07:00am 20.0 21.8 16.4 80 2.2 SSW 2 6 1 3 1009.9 1009.0 0.4
29/06:30am 19.7 20.6 16.7 83 1.8 SSW 7 9 4 5 1009.5 1008.5 0.4
29/06:00am 20.0 20.9 16.6 81 2.1 SSW 7 9 4 5 1009.1 1008.1 0.4
29/05:30am 20.1 20.4 16.1 78 2.4 SSW 9 11 5 6 1009.4 1008.4 0.4
29/05:00am 19.9 19.5 16.2 79 2.2 S 13 15 7 8 1009.3 1008.3 0.4
29/04:30am 20.6 20.4 15.6 73 3.0 E 11 17 6 9 1008.1 1007.1 0.4
29/04:00am 20.2 20.9 16.2 78 2.4 E 7 13 4 7 1008.5 1007.5 0.4
29/03:30am 20.1 20.0 16.9 82 2.0 ESE 13 15 7 8 1009.0 1008.0 0.4
29/03:00am 20.7 18.6 15.3 71 3.2 S 20 26 11 14 1009.5 1008.5 0.2
29/02:30am 22.5 22.2 14.4 60 4.8 SSE 9 13 5 7 1009.3 1008.3 0.0
29/02:00am 22.7 22.0 14.3 59 5.0 E 11 13 6 7 1009.6 1008.6 0.0
29/01:30am 22.8 22.5 14.4 59 5.0 E 9 11 5 6 1009.4 1008.4 0.0
29/01:00am 23.0 22.6 14.0 57 5.3 E 9 11 5 6 1009.9 1009.0 0.0
29/12:30am 23.1 20.9 14.4 58 5.2 ESE 19 22 10 12 1010.2 1009.3 0.0
29/12:00am 24.9 22.4 12.2 45 7.3 E 17 24 9 13 1010.7 1009.8 0.0

Other Formats:

Comma delimited format used in spreadsheet applications
http://www.bom.gov.au/fwo/IDQ60801/IDQ60801.94335.axf

JavaScript Object Notation format (JSON) in row-major order
http://www.bom.gov.au/fwo/IDQ60801/IDQ60801.94335.json